ADDS METAR Data

Data at: 0720 UTC 16 Jan 2018

METAR for:KFOK (Westhampton/Gabreski, NY, US)
Text:KFOK 160653Z AUTO 00000KT 10SM CLR M09/M11 A3051 RMK AO2 SLP331 I1000 T10941111
Temperature: -9.4°C ( 15°F)
Dewpoint:-11.1°C ( 12°F) [RH = 87%]
Pressure (altimeter):30.51 inches Hg (1033.3 mb) [Sea level pressure: 1033.1 mb]
Winds:calm
Visibility:10 or more sm (16+ km)
Ceiling:at least 12,000 feet AGL
Clouds:sky clear below 12,000 feet AGL
QC Flag:automated observation with no human augmentation